Time;durP1;ratioP1;P1;durP2;ratioP2;P2;SDS_P1;SDS_P2;PMS_P1;PMS_P2;Temp;Humidity;BMP_temperature;BMP_pressure;BME280_temperature;BME280_humidity;BME280_pressure;Samples;Min_cycle;Max_cycle;Signal;HPM_P1;HPM_P2
2023/04/19 00:01:29;;;;;;;11.63;8.37;;;10.70;99.90;;;;;;5076154;28;20223;-59
2023/04/19 00:03:56;;;;;;;11.63;8.63;;;10.70;99.90;;;;;;5075145;28;20210;-59
2023/04/19 00:06:25;;;;;;;13.27;8.63;;;10.70;99.90;;;;;;5077001;28;20206;-59
2023/04/19 00:08:51;;;;;;;9.27;8.10;;;10.70;99.90;;;;;;5075155;28;20500;-59
2023/04/19 00:11:18;;;;;;;10.97;8.43;;;10.60;99.90;;;;;;5075488;28;20209;-59
2023/04/19 00:13:45;;;;;;;9.97;8.07;;;10.70;99.90;;;;;;5076443;28;20484;-59
2023/04/19 00:16:12;;;;;;;10.43;8.60;;;10.80;99.90;;;;;;5058360;28;20197;-58
2023/04/19 00:18:39;;;;;;;12.07;8.67;;;10.80;99.90;;;;;;5078073;28;20241;-59
2023/04/19 00:21:06;;;;;;;10.33;7.87;;;10.80;99.90;;;;;;5058373;28;20225;-58
2023/04/19 00:23:33;;;;;;;13.67;9.40;;;10.90;99.90;;;;;;5063063;28;20204;-59
2023/04/19 00:26:04;;;;;;;10.87;8.33;;;10.90;99.90;;;;;;5058523;28;20868;-59
2023/04/19 00:28:30;;;;;;;12.47;8.30;;;10.90;99.90;;;;;;5077612;28;20215;-62
2023/04/19 00:30:57;;;;;;;12.60;8.87;;;10.90;99.90;;;;;;5078183;28;20626;-59
2023/04/19 00:33:24;;;;;;;11.03;8.93;;;10.90;99.90;;;;;;5072951;28;20208;-58
2023/04/19 00:35:51;;;;;;;11.53;8.70;;;10.90;99.90;;;;;;5049388;28;20282;-58
2023/04/19 00:38:18;;;;;;;11.70;8.57;;;11.00;99.90;;;;;;5078382;28;20285;-58
2023/04/19 00:40:45;;;;;;;13.93;9.07;;;11.00;99.90;;;;;;5055707;28;20845;-58
2023/04/19 00:43:19;;;;;;;10.40;8.57;;;11.00;99.90;;;;;;5073792;28;20737;-58
2023/04/19 00:45:47;;;;;;;11.97;9.20;;;11.00;99.90;;;;;;5072579;28;20706;-59
2023/04/19 00:48:14;;;;;;;9.43;7.93;;;11.00;99.90;;;;;;5073253;28;20209;-60
2023/04/19 00:50:43;;;;;;;15.40;10.07;;;11.00;99.90;;;;;;5068640;28;20198;-58
2023/04/19 00:53:10;;;;;;;9.70;8.47;;;11.10;99.90;;;;;;5073762;28;20836;-59
2023/04/19 00:55:38;;;;;;;13.50;8.77;;;11.00;99.90;;;;;;5072771;28;20583;-59
2023/04/19 00:58:08;;;;;;;9.40;8.23;;;11.10;99.90;;;;;;5075486;28;20203;-59
2023/04/19 01:00:36;;;;;;;11.40;7.97;;;11.10;99.90;;;;;;5068789;28;20211;-58
2023/04/19 01:03:03;;;;;;;12.80;9.03;;;11.10;99.90;;;;;;5073895;28;20271;-59
2023/04/19 01:05:30;;;;;;;10.77;8.17;;;11.10;99.90;;;;;;5073995;28;20202;-59
2023/04/19 01:07:57;;;;;;;11.77;9.13;;;11.00;99.90;;;;;;5071391;28;20221;-59
2023/04/19 01:10:24;;;;;;;12.30;8.93;;;11.00;99.90;;;;;;5053538;28;20194;-59
2023/04/19 01:12:51;;;;;;;12.57;9.17;;;11.00;99.90;;;;;;5072061;28;20208;-58
2023/04/19 01:15:18;;;;;;;12.50;8.90;;;11.00;99.90;;;;;;5070521;28;20589;-60
2023/04/19 01:17:45;;;;;;;11.30;8.57;;;11.00;99.90;;;;;;5073012;28;20696;-63
2023/04/19 01:20:12;;;;;;;14.77;9.10;;;11.10;99.90;;;;;;5072324;28;20243;-58
2023/04/19 01:22:39;;;;;;;10.67;8.97;;;11.00;99.90;;;;;;5072622;28;20210;-58
2023/04/19 01:25:07;;;;;;;10.17;8.07;;;11.00;99.90;;;;;;5058182;28;20273;-58
2023/04/19 01:27:34;;;;;;;12.77;9.17;;;11.00;99.90;;;;;;5072532;28;20224;-59
2023/04/19 01:30:01;;;;;;;12.53;9.03;;;11.00;99.90;;;;;;5055013;28;20245;-61
2023/04/19 01:32:28;;;;;;;13.20;9.20;;;11.00;99.90;;;;;;5059394;28;20694;-58
2023/04/19 01:34:55;;;;;;;11.73;9.17;;;11.00;99.90;;;;;;5054804;28;20207;-57
2023/04/19 01:37:22;;;;;;;10.13;8.17;;;11.00;99.90;;;;;;5054469;28;20220;-58
2023/04/19 01:39:49;;;;;;;11.90;9.73;;;11.00;99.90;;;;;;5069305;28;20395;-58
2023/04/19 01:42:16;;;;;;;12.37;8.93;;;11.10;99.90;;;;;;5076055;28;20289;-59
2023/04/19 01:44:42;;;;;;;11.00;8.87;;;11.10;99.90;;;;;;5069650;28;20211;-61
2023/04/19 01:47:09;;;;;;;13.67;8.60;;;11.10;99.90;;;;;;5071678;28;20670;-58
2023/04/19 01:49:36;;;;;;;11.87;9.30;;;11.00;99.90;;;;;;5068903;28;20724;-60
2023/04/19 01:52:03;;;;;;;11.03;9.27;;;11.00;99.90;;;;;;5073889;28;20289;-60
2023/04/19 01:54:30;;;;;;;12.63;9.77;;;11.00;99.90;;;;;;5072742;28;20357;-60
2023/04/19 01:56:57;;;;;;;14.27;9.20;;;11.10;99.90;;;;;;5073967;28;20376;-58
2023/04/19 01:59:24;;;;;;;13.80;9.80;;;11.00;99.90;;;;;;5070428;28;20211;-58
2023/04/19 02:01:51;;;;;;;13.87;9.37;;;11.10;99.90;;;;;;5058328;28;20220;-60
2023/04/19 02:04:20;;;;;;;13.03;9.50;;;11.10;99.90;;;;;;5070069;28;20199;-64
2023/04/19 02:06:47;;;;;;;14.00;8.93;;;11.20;99.90;;;;;;5071736;28;20209;-60
2023/04/19 02:09:15;;;;;;;11.30;8.87;;;11.20;99.90;;;;;;5070368;28;20651;-60
2023/04/19 02:11:42;;;;;;;11.53;9.00;;;11.20;99.90;;;;;;5074009;28;20201;-60
2023/04/19 02:14:08;;;;;;;13.00;9.47;;;11.20;99.90;;;;;;5070850;28;20623;-60
2023/04/19 02:16:35;;;;;;;14.30;9.77;;;11.20;99.90;;;;;;5071914;28;20217;-59
2023/04/19 02:19:03;;;;;;;10.73;9.33;;;11.20;99.90;;;;;;5067993;28;20702;-60
2023/04/19 02:21:30;;;;;;;12.80;8.87;;;11.20;99.90;;;;;;5073043;28;20211;-60
2023/04/19 02:23:57;;;;;;;10.03;8.33;;;11.30;99.90;;;;;;5070057;28;20212;-59
2023/04/19 02:26:24;;;;;;;12.23;8.73;;;11.30;99.90;;;;;;5071780;28;20213;-60
2023/04/19 02:28:51;;;;;;;12.67;9.07;;;11.20;99.90;;;;;;5071058;28;20199;-59
2023/04/19 02:31:19;;;;;;;11.47;8.57;;;11.20;99.90;;;;;;5071945;28;20220;-60
2023/04/19 02:33:46;;;;;;;12.43;9.27;;;11.10;99.90;;;;;;5069747;28;20216;-59
2023/04/19 02:36:12;;;;;;;13.93;8.80;;;11.10;99.90;;;;;;5071990;28;20290;-60
2023/04/19 02:38:40;;;;;;;12.07;8.00;;;11.00;99.90;;;;;;5073675;28;20306;-60
2023/04/19 02:41:07;;;;;;;11.17;8.50;;;11.00;99.90;;;;;;5056624;28;20226;-59
2023/04/19 02:43:34;;;;;;;12.03;8.53;;;10.90;99.90;;;;;;5045668;28;20760;-59
2023/04/19 02:46:01;;;;;;;10.90;8.20;;;10.90;99.90;;;;;;5076767;28;20201;-59
2023/04/19 02:48:28;;;;;;;11.30;9.07;;;10.70;99.90;;;;;;5076362;28;20226;-60
2023/04/19 02:50:55;;;;;;;11.13;8.97;;;10.60;99.90;;;;;;5075515;28;20653;-59
2023/04/19 02:53:22;;;;;;;13.67;9.53;;;10.60;99.90;;;;;;5077515;28;20242;-60
2023/04/19 02:55:49;;;;;;;13.90;9.23;;;10.60;99.90;;;;;;5056738;28;20250;-60
2023/04/19 02:58:16;;;;;;;11.67;8.60;;;10.50;99.90;;;;;;5060611;28;20205;-60
2023/04/19 03:00:43;;;;;;;10.47;8.83;;;10.50;99.90;;;;;;5060781;28;20756;-60
2023/04/19 03:03:10;;;;;;;10.53;8.93;;;10.50;99.90;;;;;;5076537;28;20973;-60
2023/04/19 03:05:37;;;;;;;10.30;7.87;;;10.60;99.90;;;;;;5070888;28;20250;-60
2023/04/19 03:08:04;;;;;;;9.30;8.00;;;10.50;99.90;;;;;;5057673;28;20226;-60
2023/04/19 03:10:31;;;;;;;11.50;8.73;;;10.50;99.90;;;;;;5075274;28;20225;-60
2023/04/19 03:12:58;;;;;;;12.77;8.20;;;10.50;99.90;;;;;;5062470;28;20716;-59
2023/04/19 03:15:25;;;;;;;14.17;8.80;;;10.50;99.90;;;;;;5078920;28;20589;-59
2023/04/19 03:17:52;;;;;;;12.30;8.57;;;10.50;99.90;;;;;;5077663;28;20314;-60
2023/04/19 03:20:19;;;;;;;10.73;8.20;;;10.50;99.90;;;;;;5078630;28;20351;-60
2023/04/19 03:22:46;;;;;;;11.90;9.00;;;10.60;99.90;;;;;;5080023;28;20273;-60
2023/04/19 03:25:13;;;;;;;15.50;9.80;;;10.60;99.90;;;;;;5078741;28;20210;-60
2023/04/19 03:27:40;;;;;;;11.97;8.07;;;10.60;99.90;;;;;;5060378;28;20724;-59
2023/04/19 03:30:08;;;;;;;18.10;8.60;;;10.60;99.90;;;;;;5058561;28;20217;-61
2023/04/19 03:32:34;;;;;;;11.83;9.00;;;10.60;99.90;;;;;;5060513;28;20226;-61
2023/04/19 03:35:02;;;;;;;11.27;8.50;;;10.60;99.90;;;;;;5077552;28;20226;-58
2023/04/19 03:37:29;;;;;;;10.70;8.33;;;10.60;99.90;;;;;;5061811;28;20203;-60
2023/04/19 03:39:56;;;;;;;11.97;8.30;;;10.70;99.90;;;;;;5044364;28;20223;-61
2023/04/19 03:42:22;;;;;;;10.17;8.77;;;10.60;99.90;;;;;;5076957;28;20568;-58
2023/04/19 03:44:49;;;;;;;11.27;9.30;;;10.70;99.90;;;;;;5076776;28;20253;-58
2023/04/19 03:47:16;;;;;;;12.07;8.77;;;10.60;99.90;;;;;;5079940;28;20645;-59
2023/04/19 03:49:43;;;;;;;11.73;8.50;;;10.60;99.90;;;;;;5052971;28;20630;-58
2023/04/19 03:52:10;;;;;;;9.83;7.60;;;10.60;99.90;;;;;;5052324;28;20283;-59
2023/04/19 03:54:37;;;;;;;11.70;7.57;;;10.70;99.90;;;;;;5043634;28;20210;-59
2023/04/19 03:57:04;;;;;;;10.47;8.37;;;10.60;99.90;;;;;;5062671;28;21071;-58
2023/04/19 03:59:31;;;;;;;9.90;8.10;;;10.60;99.90;;;;;;5055622;28;20659;-58
2023/04/19 04:01:58;;;;;;;11.93;8.37;;;10.60;99.90;;;;;;5055359;28;20353;-58
2023/04/19 04:04:25;;;;;;;9.93;7.43;;;10.70;99.90;;;;;;5052465;28;20699;-57
2023/04/19 04:06:52;;;;;;;9.53;7.80;;;10.60;99.90;;;;;;5057034;28;20203;-58
2023/04/19 04:09:19;;;;;;;12.07;8.30;;;10.60;99.90;;;;;;5051545;28;20197;-58
2023/04/19 04:11:46;;;;;;;9.80;7.80;;;10.70;99.90;;;;;;5046987;28;20242;-61
2023/04/19 04:14:13;;;;;;;11.57;7.37;;;10.60;99.90;;;;;;5050045;28;20203;-59
2023/04/19 04:16:40;;;;;;;12.87;7.83;;;10.60;99.90;;;;;;5051285;28;20413;-58
2023/04/19 04:19:07;;;;;;;9.30;7.03;;;10.60;99.90;;;;;;5051948;28;20621;-60
2023/04/19 04:21:34;;;;;;;8.27;6.17;;;10.60;99.90;;;;;;5050574;28;20616;-58
2023/04/19 04:24:02;;;;;;;9.80;6.70;;;10.50;99.90;;;;;;5055234;28;20706;-58
2023/04/19 04:26:29;;;;;;;7.20;6.20;;;10.60;99.90;;;;;;5054152;28;20196;-58
2023/04/19 04:28:56;;;;;;;9.23;6.27;;;10.50;99.90;;;;;;5049840;28;20630;-60
2023/04/19 04:31:23;;;;;;;9.43;6.73;;;10.60;99.90;;;;;;5053411;28;20228;-59
2023/04/19 04:33:52;;;;;;;7.23;5.83;;;10.50;99.90;;;;;;5045129;28;20236;-58
2023/04/19 04:36:19;;;;;;;9.63;6.97;;;10.50;99.90;;;;;;5053629;28;20277;-59
2023/04/19 04:38:46;;;;;;;8.93;5.87;;;10.60;99.90;;;;;;5051158;28;20620;-59
2023/04/19 04:41:13;;;;;;;9.10;6.70;;;10.50;99.90;;;;;;5052105;28;20202;-58
2023/04/19 04:43:40;;;;;;;10.70;6.30;;;10.40;99.90;;;;;;5050951;28;20725;-59
2023/04/19 04:46:07;;;;;;;7.43;6.23;;;10.40;99.90;;;;;;5050857;28;20203;-58
2023/04/19 04:48:34;;;;;;;11.33;7.10;;;10.30;99.90;;;;;;5016550;28;1120841;-58
2023/04/19 04:51:01;;;;;;;9.03;6.77;;;10.20;99.90;;;;;;5056790;28;20532;-59
2023/04/19 04:53:28;;;;;;;8.10;6.17;;;10.20;99.90;;;;;;5070358;28;20207;-59
2023/04/19 04:55:55;;;;;;;7.90;6.07;;;10.10;99.90;;;;;;5050854;28;20288;-59
2023/04/19 04:58:22;;;;;;;7.40;6.13;;;10.00;99.90;;;;;;5071269;28;20213;-59
2023/04/19 05:00:49;;;;;;;8.57;7.03;;;10.10;99.90;;;;;;5039044;28;20635;-59
2023/04/19 05:03:16;;;;;;;8.43;6.30;;;10.10;99.90;;;;;;5074975;28;20371;-64
2023/04/19 05:05:42;;;;;;;9.30;6.90;;;10.10;99.90;;;;;;5051924;28;20202;-59
2023/04/19 05:08:11;;;;;;;8.30;6.17;;;10.00;99.90;;;;;;5065664;28;20203;-58
2023/04/19 05:10:38;;;;;;;10.13;6.20;;;10.00;99.90;;;;;;5064214;28;20624;-59
2023/04/19 05:13:04;;;;;;;9.10;6.57;;;10.00;99.90;;;;;;5074597;28;20206;-59
2023/04/19 05:15:31;;;;;;;9.97;5.93;;;9.80;99.90;;;;;;5054577;28;20651;-58
2023/04/19 05:17:58;;;;;;;8.47;5.90;;;9.90;99.90;;;;;;5044704;28;20310;-60
2023/04/19 05:20:25;;;;;;;9.30;6.27;;;9.90;99.90;;;;;;5071649;28;20204;-59
2023/04/19 05:23:02;;;;;;;8.60;6.17;;;9.90;99.90;;;;;;5070810;28;20280;-59
2023/04/19 05:25:29;;;;;;;8.13;6.17;;;9.90;99.90;;;;;;5058927;28;20202;-58
2023/04/19 05:27:56;;;;;;;11.47;7.27;;;9.80;99.90;;;;;;5073753;28;20232;-59
2023/04/19 05:30:23;;;;;;;8.80;6.47;;;9.90;99.90;;;;;;5070838;28;20203;-59
2023/04/19 05:32:51;;;;;;;9.33;6.77;;;9.90;99.90;;;;;;5071516;28;20213;-59
2023/04/19 05:35:19;;;;;;;8.57;6.90;;;9.90;99.90;;;;;;5068806;28;20211;-59
2023/04/19 05:37:45;;;;;;;8.10;5.90;;;9.90;99.90;;;;;;5059921;28;20547;-59
2023/04/19 05:40:12;;;;;;;10.23;6.53;;;10.00;99.90;;;;;;5074872;28;20281;-58
2023/04/19 05:42:39;;;;;;;11.27;6.57;;;9.90;99.90;;;;;;5074629;28;20761;-59
2023/04/19 05:45:07;;;;;;;9.10;6.30;;;10.10;99.90;;;;;;5055813;28;20282;-59
2023/04/19 05:47:34;;;;;;;8.07;6.33;;;10.20;99.90;;;;;;5043683;28;20202;-59
2023/04/19 05:50:01;;;;;;;8.60;5.77;;;10.30;99.90;;;;;;5071327;28;20234;-60
2023/04/19 05:52:28;;;;;;;7.27;5.77;;;10.30;99.90;;;;;;5052060;28;20205;-60
2023/04/19 05:54:55;;;;;;;7.50;5.67;;;10.20;99.90;;;;;;5067659;28;20209;-58
2023/04/19 05:57:22;;;;;;;7.80;6.47;;;10.20;99.90;;;;;;5067706;28;20204;-58
2023/04/19 05:59:49;;;;;;;9.97;6.03;;;10.40;99.90;;;;;;5071567;28;20749;-59
2023/04/19 06:02:15;;;;;;;7.80;5.80;;;10.50;99.90;;;;;;5060829;28;20233;-59
2023/04/19 06:04:43;;;;;;;5.73;4.77;;;10.50;99.90;;;;;;5070900;28;20207;-58
2023/04/19 06:07:10;;;;;;;7.53;5.30;;;10.60;99.90;;;;;;5058781;28;20297;-59
2023/04/19 06:09:56;;;;;;;6.37;4.80;;;10.60;99.90;;;;;;5051121;28;20249;-59
2023/04/19 06:12:23;;;;;;;6.37;5.13;;;10.50;99.90;;;;;;5071058;28;20259;-58
2023/04/19 06:14:51;;;;;;;7.40;5.33;;;10.60;99.90;;;;;;5067873;28;20215;-59
2023/04/19 06:17:23;;;;;;;7.23;5.67;;;10.60;99.90;;;;;;5070912;28;20198;-59
2023/04/19 06:19:50;;;;;;;6.53;5.40;;;10.80;99.90;;;;;;5068728;28;20296;-59
2023/04/19 06:22:17;;;;;;;6.97;4.90;;;10.90;99.90;;;;;;5074588;28;20195;-58
2023/04/19 06:24:45;;;;;;;5.80;5.00;;;10.90;99.90;;;;;;4712553;28;10000580;-58
2023/04/19 06:27:12;;;;;;;5.60;4.70;;;10.90;99.90;;;;;;5060866;28;20300;-61
2023/04/19 06:29:39;;;;;;;7.13;4.70;;;11.00;99.90;;;;;;5064284;28;20222;-58
2023/04/19 06:32:06;;;;;;;7.20;4.67;;;11.00;99.90;;;;;;5072395;28;20198;-58
2023/04/19 06:34:33;;;;;;;6.43;5.13;;;11.00;99.90;;;;;;5052293;28;20727;-59
2023/04/19 06:37:00;;;;;;;5.57;4.53;;;11.20;99.90;;;;;;5070676;28;20920;-58
2023/04/19 06:39:27;;;;;;;5.87;4.27;;;11.20;99.90;;;;;;5069280;28;20301;-58
2023/04/19 06:41:54;;;;;;;7.20;4.27;;;11.30;99.90;;;;;;5070538;28;20218;-62
2023/04/19 06:44:21;;;;;;;7.00;4.33;;;11.40;99.90;;;;;;5055048;28;20267;-59
2023/04/19 06:46:48;;;;;;;4.63;3.77;;;11.40;99.90;;;;;;5067971;28;20566;-58
2023/04/19 06:49:14;;;;;;;6.47;4.97;;;11.50;99.90;;;;;;5065092;28;20317;-58
2023/04/19 06:51:41;;;;;;;6.50;4.37;;;11.60;99.90;;;;;;5069028;28;20537;-58
2023/04/19 06:54:08;;;;;;;5.33;3.70;;;11.70;99.90;;;;;;5041813;28;20289;-58
2023/04/19 06:56:46;;;;;;;7.80;4.53;;;11.90;99.90;;;;;;5065384;28;20281;-58
2023/04/19 06:59:15;;;;;;;6.23;4.13;;;11.70;99.90;;;;;;5050590;28;20249;-58
2023/04/19 07:01:43;;;;;;;7.63;4.90;;;11.90;99.90;;;;;;5053525;28;20227;-58
2023/04/19 07:04:10;;;;;;;5.60;4.57;;;12.10;99.90;;;;;;5066629;28;20880;-59
2023/04/19 07:06:38;;;;;;;5.33;4.13;;;12.30;99.90;;;;;;5049772;28;20189;-58
2023/04/19 07:09:06;;;;;;;6.00;4.37;;;12.30;99.90;;;;;;5066832;28;20692;-58
2023/04/19 07:11:33;;;;;;;6.70;4.60;;;12.40;99.90;;;;;;5067353;28;20558;-58
2023/04/19 07:14:00;;;;;;;5.53;4.70;;;12.60;99.90;;;;;;5067548;28;20233;-59
2023/04/19 07:16:27;;;;;;;4.47;4.07;;;12.60;99.90;;;;;;5054498;28;20216;-59
2023/04/19 07:18:55;;;;;;;8.90;4.40;;;12.60;99.90;;;;;;5052233;28;20339;-60
2023/04/19 07:21:24;;;;;;;6.63;4.03;;;12.70;99.90;;;;;;5047301;28;20888;-59
2023/04/19 07:23:50;;;;;;;7.10;4.53;;;12.90;99.90;;;;;;5067281;28;20326;-59
2023/04/19 07:26:17;;;;;;;5.83;4.40;;;13.20;99.90;;;;;;5068000;28;20230;-58
2023/04/19 07:28:44;;;;;;;6.10;4.47;;;13.20;99.90;;;;;;5053967;28;20241;-58
2023/04/19 07:31:15;;;;;;;5.53;4.00;;;13.10;99.90;;;;;;5076335;28;20222;-59
2023/04/19 07:33:42;;;;;;;5.30;4.47;;;13.30;99.90;;;;;;5073617;28;20277;-59
2023/04/19 07:36:10;;;;;;;6.07;4.23;;;13.30;99.90;;;;;;5073172;28;20378;-59
2023/04/19 07:38:37;;;;;;;6.10;4.27;;;13.60;99.90;;;;;;5076163;28;20207;-59
2023/04/19 07:41:05;;;;;;;5.90;4.33;;;13.50;99.90;;;;;;5065416;28;20199;-59
2023/04/19 07:43:32;;;;;;;9.43;4.97;;;13.50;99.90;;;;;;5065054;28;20219;-59
2023/04/19 07:45:59;;;;;;;5.67;3.80;;;13.70;99.90;;;;;;5066090;28;20203;-59
2023/04/19 07:48:26;;;;;;;6.87;4.00;;;14.00;99.90;;;;;;5073677;28;20278;-59
2023/04/19 07:50:53;;;;;;;5.57;4.10;;;13.50;99.90;;;;;;5021533;28;20210;-59
2023/04/19 07:53:20;;;;;;;6.07;4.17;;;13.70;99.90;;;;;;5053725;28;20316;-59
2023/04/19 07:55:47;;;;;;;6.93;4.90;;;13.60;99.90;;;;;;5065885;28;20203;-59
2023/04/19 07:58:14;;;;;;;8.77;4.17;;;13.50;99.90;;;;;;5073233;28;20214;-59
2023/04/19 08:00:41;;;;;;;5.33;4.57;;;13.60;99.90;;;;;;5058077;28;20207;-58
2023/04/19 08:03:08;;;;;;;4.53;4.03;;;13.70;99.90;;;;;;5071352;28;20698;-59
2023/04/19 08:05:35;;;;;;;5.00;4.50;;;13.70;99.90;;;;;;5067633;28;20207;-58
2023/04/19 08:08:02;;;;;;;6.43;4.40;;;13.60;99.90;;;;;;5071773;28;20720;-60
2023/04/19 08:10:30;;;;;;;5.97;4.07;;;13.60;99.90;;;;;;5071453;28;20670;-59
2023/04/19 08:12:57;;;;;;;4.43;4.00;;;14.00;99.90;;;;;;5071329;28;21205;-59
2023/04/19 08:15:35;;;;;;;8.07;4.20;;;14.20;99.90;;;;;;5066541;28;20195;-60
2023/04/19 08:18:05;;;;;;;7.70;4.93;;;14.30;99.90;;;;;;5069478;28;20560;-59
2023/04/19 08:20:32;;;;;;;7.77;4.70;;;14.50;99.90;;;;;;5070669;28;20734;-58
2023/04/19 08:23:00;;;;;;;7.63;4.47;;;14.40;99.90;;;;;;5069123;28;20212;-59
2023/04/19 08:25:40;;;;;;;4.93;4.30;;;14.60;99.90;;;;;;5071702;28;20206;-59
2023/04/19 08:28:07;;;;;;;6.83;3.73;;;14.50;99.90;;;;;;5071475;28;20289;-59
2023/04/19 08:30:34;;;;;;;5.87;3.90;;;14.70;99.90;;;;;;5068926;28;20210;-59
2023/04/19 08:33:01;;;;;;;5.17;3.90;;;14.90;99.90;;;;;;5051490;28;20220;-59
2023/04/19 08:35:28;;;;;;;6.97;3.90;;;14.70;99.90;;;;;;5072079;28;20226;-59
2023/04/19 08:37:55;;;;;;;4.13;3.13;;;15.00;99.90;;;;;;5038538;28;20719;-59
2023/04/19 08:40:22;;;;;;;5.37;3.43;;;15.10;99.90;;;;;;5067445;28;20206;-59
2023/04/19 08:42:50;;;;;;;5.53;3.40;;;15.30;99.90;;;;;;5071656;28;20708;-59
2023/04/19 08:45:20;;;;;;;3.27;2.97;;;15.50;99.90;;;;;;5037135;28;20216;-59
2023/04/19 08:47:50;;;;;;;4.90;2.97;;;15.30;99.90;;;;;;5070884;28;20259;-59
2023/04/19 08:50:27;;;;;;;4.17;2.97;;;15.80;99.90;;;;;;5069903;28;20338;-58
2023/04/19 08:53:12;;;;;;;4.13;3.30;;;16.20;99.90;;;;;;5051513;28;20211;-61
2023/04/19 08:55:57;;;;;;;5.47;3.23;;;16.00;99.90;;;;;;5049904;28;20218;-59
2023/04/19 08:58:40;;;;;;;8.57;3.30;;;15.60;99.90;;;;;;5050530;28;20208;-59
2023/04/19 09:01:27;;;;;;;3.97;2.77;;;16.00;99.90;;;;;;5048724;28;20216;-59
2023/04/19 09:04:04;;;;;;;3.90;2.83;;;16.30;99.90;;;;;;5067580;28;20626;-59
2023/04/19 09:06:52;;;;;;;4.17;2.57;;;15.70;99.90;;;;;;5069492;28;20197;-59
2023/04/19 09:09:27;;;;;;;3.67;3.03;;;15.60;99.90;;;;;;5068927;28;20596;-59
2023/04/19 09:12:16;;;;;;;4.90;2.67;;;15.90;99.90;;;;;;5070072;28;20209;-60
2023/04/19 09:14:48;;;;;;;3.93;2.50;;;16.20;99.90;;;;;;5072131;28;20669;-59
2023/04/19 09:17:27;;;;;;;3.13;2.70;;;16.60;99.90;;;;;;5071854;28;20643;-58
2023/04/19 09:19:54;;;;;;;4.87;3.13;;;16.50;99.90;;;;;;5051310;28;20241;-62
2023/04/19 09:22:21;;;;;;;4.57;2.53;;;16.10;99.90;;;;;;5066163;28;20258;-59
2023/04/19 09:24:49;;;;;;;6.83;3.50;;;16.40;99.90;;;;;;5048773;28;20245;-59
2023/04/19 09:27:32;;;;;;;3.40;2.80;;;15.90;99.90;;;;;;5066518;28;20215;-59
2023/04/19 09:30:01;;;;;;;4.70;2.63;;;15.90;99.90;;;;;;5054649;28;20196;-59
2023/04/19 09:32:42;;;;;;;5.93;2.53;;;16.10;99.90;;;;;;5064638;28;22040;-59
2023/04/19 09:35:09;;;;;;;3.60;3.00;;;16.70;99.90;;;;;;5050342;28;22512;-60
2023/04/19 09:37:40;;;;;;;3.57;2.50;;;16.20;99.90;;;;;;5054929;28;20214;-59
2023/04/19 09:40:27;;;;;;;4.73;2.80;;;16.20;99.90;;;;;;5064233;28;20328;-59
2023/04/19 09:42:54;;;;;;;3.57;2.57;;;15.70;99.90;;;;;;5069679;28;20206;-59
2023/04/19 09:45:46;;;;;;;3.73;2.83;;;15.60;99.90;;;;;;5067419;28;20209;-58
2023/04/19 09:48:13;;;;;;;4.80;2.80;;;15.90;99.90;;;;;;5067330;28;20213;-59
2023/04/19 09:50:56;;;;;;;5.20;4.20;;;16.10;99.90;;;;;;5068721;28;20304;-59
2023/04/19 09:53:33;;;;;;;5.83;2.60;;;15.80;99.90;;;;;;5070230;28;20193;-60
2023/04/19 09:56:01;;;;;;;4.20;2.83;;;15.70;99.90;;;;;;5067323;28;20293;-59
2023/04/19 09:58:30;;;;;;;4.60;3.80;;;15.80;99.90;;;;;;5053376;28;20193;-59
2023/04/19 10:01:00;;;;;;;3.13;2.60;;;15.80;99.90;;;;;;5066710;28;21773;-59
2023/04/19 10:03:41;;;;;;;2.43;1.90;;;15.90;99.90;;;;;;5072141;28;20236;-59
2023/04/19 10:06:08;;;;;;;2.33;2.13;;;15.90;99.90;;;;;;5075817;28;20198;-59
2023/04/19 10:08:54;;;;;;;2.90;2.00;;;15.70;99.90;;;;;;5075936;28;20258;-59
2023/04/19 10:11:23;;;;;;;4.97;2.17;;;15.70;99.90;;;;;;5075290;28;20190;-59
2023/04/19 10:13:55;;;;;;;3.20;1.97;;;15.90;99.90;;;;;;5075553;28;20256;-59
2023/04/19 10:16:22;;;;;;;4.20;1.77;;;16.20;99.90;;;;;;5075593;28;20635;-60
2023/04/19 10:18:51;;;;;;;4.07;1.70;;;16.20;99.90;;;;;;5055754;28;20660;-59
2023/04/19 10:21:19;;;;;;;2.57;1.50;;;15.90;99.90;;;;;;5074273;28;20201;-60
2023/04/19 10:23:47;;;;;;;3.13;1.77;;;16.00;99.90;;;;;;5075617;28;20231;-59
2023/04/19 10:26:14;;;;;;;2.23;1.30;;;16.50;99.90;;;;;;5071218;28;20205;-60
2023/04/19 10:28:41;;;;;;;1.80;1.40;;;16.20;99.90;;;;;;5073904;28;20272;-59
2023/04/19 10:31:14;;;;;;;2.20;1.10;;;16.10;99.90;;;;;;5075823;28;20289;-59
2023/04/19 10:33:41;;;;;;;1.63;1.30;;;15.80;99.90;;;;;;5072633;28;20214;-59
2023/04/19 10:36:10;;;;;;;2.23;1.40;;;15.60;99.90;;;;;;5057802;28;20208;-59
2023/04/19 10:38:39;;;;;;;1.70;1.20;;;15.70;99.90;;;;;;5054284;28;20201;-59
2023/04/19 10:41:15;;;;;;;2.57;1.00;;;15.60;99.90;;;;;;5040196;28;20311;-60
2023/04/19 10:43:46;;;;;;;1.20;0.90;;;15.70;99.90;;;;;;5073718;28;20223;-59
2023/04/19 10:46:15;;;;;;;2.00;1.27;;;15.60;99.90;;;;;;5069577;28;21510;-60
2023/04/19 10:48:59;;;;;;;3.23;2.20;;;15.90;99.90;;;;;;5068321;28;20234;-59
2023/04/19 10:51:37;;;;;;;4.87;1.20;;;16.00;99.90;;;;;;5068546;28;20275;-61
2023/04/19 10:54:30;;;;;;;1.70;1.60;;;16.00;99.90;;;;;;5070147;28;20232;-58
2023/04/19 10:57:10;;;;;;;1.70;1.60;;;16.00;99.90;;;;;;5067677;28;20232;-61
2023/04/19 10:59:39;;;;;;;2.17;1.50;;;16.10;99.90;;;;;;5053823;28;20283;-60
2023/04/19 11:02:31;;;;;;;3.57;1.70;;;16.50;99.90;;;;;;5059429;28;20210;-60
2023/04/19 11:05:00;;;;;;;5.03;1.90;;;16.10;99.90;;;;;;5065839;28;20216;-62
2023/04/19 11:07:27;;;;;;;2.90;1.50;;;15.90;99.90;;;;;;5059591;28;20782;-61
2023/04/19 11:09:54;;;;;;;3.60;2.07;;;16.10;99.90;;;;;;5071885;28;20201;-58
2023/04/19 11:12:21;;;;;;;2.50;1.83;;;16.40;99.90;;;;;;5071367;28;20675;-59
2023/04/19 11:14:52;;;;;;;3.23;1.63;;;16.40;99.90;;;;;;5068416;28;20202;-61
2023/04/19 11:17:26;;;;;;;2.93;1.53;;;16.60;99.90;;;;;;5070044;28;20203;-58
2023/04/19 11:19:57;;;;;;;3.37;1.40;;;16.60;99.90;;;;;;5071826;28;20230;-60
2023/04/19 11:22:31;;;;;;;4.00;1.80;;;17.00;99.90;;;;;;5069068;28;20240;-60
2023/04/19 11:25:11;;;;;;;2.37;1.57;;;16.90;99.90;;;;;;5076091;28;20222;-59
2023/04/19 11:27:40;;;;;;;3.20;1.50;;;16.80;99.90;;;;;;5072171;28;20277;-66
2023/04/19 11:30:09;;;;;;;4.10;1.67;;;16.20;99.90;;;;;;5055684;28;20291;-66
2023/04/19 11:32:37;;;;;;;3.23;1.70;;;16.30;99.90;;;;;;5073407;28;20230;-67
2023/04/19 11:35:08;;;;;;;1.93;1.30;;;16.60;99.90;;;;;;5068332;28;20203;-65
2023/04/19 11:37:37;;;;;;;2.13;1.63;;;17.00;99.90;;;;;;5046478;28;20207;-65
2023/04/19 11:40:05;;;;;;;2.83;1.47;;;16.90;99.90;;;;;;5052251;28;20323;-63
2023/04/19 11:42:33;;;;;;;3.17;2.10;;;16.60;99.90;;;;;;5066827;28;20225;-59
2023/04/19 11:45:00;;;;;;;2.00;1.60;;;16.50;99.90;;;;;;5066346;28;20226;-61
2023/04/19 11:47:27;;;;;;;3.20;1.73;;;17.20;99.90;;;;;;5046550;28;20228;-61
2023/04/19 11:49:55;;;;;;;3.50;1.97;;;17.20;99.90;;;;;;5072109;28;20238;-59
2023/04/19 11:52:25;;;;;;;3.63;1.83;;;17.10;99.90;;;;;;5075309;28;20728;-59
2023/04/19 11:54:52;;;;;;;2.77;1.87;;;17.30;99.90;;;;;;5050165;28;20207;-59
2023/04/19 11:57:30;;;;;;;2.43;1.80;;;17.70;99.90;;;;;;5062068;28;20317;-59
2023/04/19 12:00:06;;;;;;;4.17;1.80;;;17.60;99.90;;;;;;5071508;28;20239;-59
2023/04/19 12:02:37;;;;;;;4.90;2.00;;;17.70;99.90;;;;;;5073030;28;20209;-59
2023/04/19 12:05:13;;;;;;;2.17;1.80;;;17.80;99.90;;;;;;5067529;28;20222;-59
2023/04/19 12:07:59;;;;;;;3.10;2.30;;;17.70;99.90;;;;;;5073351;28;20213;-60
2023/04/19 12:10:26;;;;;;;3.43;2.20;;;17.40;99.90;;;;;;5070952;28;20244;-59
2023/04/19 12:12:53;;;;;;;6.43;2.13;;;17.60;99.90;;;;;;5064315;28;20327;-59
2023/04/19 12:15:20;;;;;;;2.53;2.10;;;17.70;99.90;;;;;;5047520;28;20208;-59
2023/04/19 12:18:01;;;;;;;6.17;2.00;;;18.60;99.90;;;;;;5070565;28;20232;-59
2023/04/19 12:20:34;;;;;;;4.23;2.30;;;18.90;99.90;;;;;;5066821;28;20214;-59
2023/04/19 12:23:02;;;;;;;4.50;2.10;;;18.00;99.90;;;;;;5067512;28;20315;-59
2023/04/19 12:25:31;;;;;;;3.17;1.97;;;18.60;99.90;;;;;;5048096;28;20216;-59
2023/04/19 12:28:03;;;;;;;3.83;1.70;;;19.10;99.90;;;;;;5068678;28;20556;-61
2023/04/19 12:30:29;;;;;;;3.73;2.10;;;18.80;99.90;;;;;;5064486;28;20197;-57
2023/04/19 12:32:58;;;;;;;2.50;1.87;;;18.30;99.90;;;;;;5049368;28;20448;-60
2023/04/19 12:35:26;;;;;;;2.50;1.70;;;18.20;99.90;;;;;;5067303;28;22174;-58
2023/04/19 12:37:55;;;;;;;4.50;2.23;;;18.40;99.90;;;;;;5068809;28;20346;-58
2023/04/19 12:40:22;;;;;;;2.87;2.13;;;18.00;99.90;;;;;;5070667;28;20717;-58
2023/04/19 12:42:50;;;;;;;2.77;1.90;;;18.50;99.90;;;;;;5069776;28;20221;-58
2023/04/19 12:45:18;;;;;;;2.53;1.80;;;18.70;99.90;;;;;;5050557;28;20219;-58
2023/04/19 12:47:47;;;;;;;4.87;2.23;;;18.90;99.90;;;;;;5068568;28;21882;-59
2023/04/19 12:50:15;;;;;;;1.90;1.70;;;19.00;99.90;;;;;;5043229;28;20234;-59
2023/04/19 12:52:43;;;;;;;2.27;2.00;;;18.40;99.90;;;;;;5065892;28;20614;-59